sensor_id;sensor_type;location;lat;lon;timestamp;P1;durP1;ratioP1;P2;durP2;ratioP2
12177;SDS011;6152;48.728;9.256;2022-07-22T00:01:52;6.25;;;5.53;;
12177;SDS011;6152;48.728;9.256;2022-07-22T00:04:18;5.65;;;5.15;;
12177;SDS011;6152;48.728;9.256;2022-07-22T00:06:44;5.97;;;5.32;;
12177;SDS011;6152;48.728;9.256;2022-07-22T00:09:10;7.82;;;6.28;;
12177;SDS011;6152;48.728;9.256;2022-07-22T00:11:36;5.80;;;5.30;;
12177;SDS011;6152;48.728;9.256;2022-07-22T00:14:02;6.93;;;5.57;;
12177;SDS011;6152;48.728;9.256;2022-07-22T00:16:29;6.10;;;5.50;;
12177;SDS011;6152;48.728;9.256;2022-07-22T00:18:55;6.18;;;5.57;;
12177;SDS011;6152;48.728;9.256;2022-07-22T00:21:21;6.22;;;5.45;;
12177;SDS011;6152;48.728;9.256;2022-07-22T00:23:47;6.25;;;5.65;;
12177;SDS011;6152;48.728;9.256;2022-07-22T00:26:13;6.72;;;5.03;;
12177;SDS011;6152;48.728;9.256;2022-07-22T00:28:39;5.78;;;5.28;;
12177;SDS011;6152;48.728;9.256;2022-07-22T00:31:06;5.68;;;5.18;;
12177;SDS011;6152;48.728;9.256;2022-07-22T00:33:32;7.00;;;5.60;;
12177;SDS011;6152;48.728;9.256;2022-07-22T00:35:58;6.30;;;5.30;;
12177;SDS011;6152;48.728;9.256;2022-07-22T00:38:24;5.88;;;5.30;;
12177;SDS011;6152;48.728;9.256;2022-07-22T00:40:50;6.10;;;4.85;;
12177;SDS011;6152;48.728;9.256;2022-07-22T00:43:16;6.47;;;5.88;;
12177;SDS011;6152;48.728;9.256;2022-07-22T00:45:42;6.03;;;5.40;;
12177;SDS011;6152;48.728;9.256;2022-07-22T00:48:09;6.90;;;5.95;;
12177;SDS011;6152;48.728;9.256;2022-07-22T00:50:35;7.13;;;6.43;;
12177;SDS011;6152;48.728;9.256;2022-07-22T00:53:01;6.95;;;5.78;;
12177;SDS011;6152;48.728;9.256;2022-07-22T00:55:28;7.65;;;6.15;;
12177;SDS011;6152;48.728;9.256;2022-07-22T00:57:54;7.78;;;6.18;;
12177;SDS011;6152;48.728;9.256;2022-07-22T01:00:21;8.13;;;6.28;;
12177;SDS011;6152;48.728;9.256;2022-07-22T01:02:48;6.75;;;6.15;;
12177;SDS011;6152;48.728;9.256;2022-07-22T01:05:14;7.72;;;6.32;;
12177;SDS011;6152;48.728;9.256;2022-07-22T01:07:40;6.28;;;5.65;;
12177;SDS011;6152;48.728;9.256;2022-07-22T01:10:07;7.65;;;6.45;;
12177;SDS011;6152;48.728;9.256;2022-07-22T01:12:33;7.32;;;6.60;;
12177;SDS011;6152;48.728;9.256;2022-07-22T01:14:59;7.53;;;6.22;;
12177;SDS011;6152;48.728;9.256;2022-07-22T01:17:25;6.65;;;5.95;;
12177;SDS011;6152;48.728;9.256;2022-07-22T01:19:51;7.03;;;6.32;;
12177;SDS011;6152;48.728;9.256;2022-07-22T01:22:18;9.70;;;6.18;;
12177;SDS011;6152;48.728;9.256;2022-07-22T01:24:44;7.05;;;6.22;;
12177;SDS011;6152;48.728;9.256;2022-07-22T01:27:10;7.20;;;6.25;;
12177;SDS011;6152;48.728;9.256;2022-07-22T01:29:36;8.75;;;6.47;;
12177;SDS011;6152;48.728;9.256;2022-07-22T01:32:02;7.13;;;6.30;;
12177;SDS011;6152;48.728;9.256;2022-07-22T01:34:29;6.05;;;5.45;;
12177;SDS011;6152;48.728;9.256;2022-07-22T01:36:55;7.65;;;6.95;;
12177;SDS011;6152;48.728;9.256;2022-07-22T01:39:21;7.00;;;6.05;;
12177;SDS011;6152;48.728;9.256;2022-07-22T01:41:47;7.53;;;6.72;;
12177;SDS011;6152;48.728;9.256;2022-07-22T01:44:13;8.23;;;6.97;;
12177;SDS011;6152;48.728;9.256;2022-07-22T01:46:39;7.13;;;6.40;;
12177;SDS011;6152;48.728;9.256;2022-07-22T01:49:05;7.82;;;6.30;;
12177;SDS011;6152;48.728;9.256;2022-07-22T01:51:32;10.75;;;7.40;;
12177;SDS011;6152;48.728;9.256;2022-07-22T01:53:58;7.68;;;6.88;;
12177;SDS011;6152;48.728;9.256;2022-07-22T01:56:24;9.32;;;7.13;;
12177;SDS011;6152;48.728;9.256;2022-07-22T01:58:50;7.97;;;6.93;;
12177;SDS011;6152;48.728;9.256;2022-07-22T02:01:16;7.55;;;6.72;;
12177;SDS011;6152;48.728;9.256;2022-07-22T02:03:42;7.22;;;6.53;;
12177;SDS011;6152;48.728;9.256;2022-07-22T02:06:08;7.20;;;6.50;;
12177;SDS011;6152;48.728;9.256;2022-07-22T02:08:34;7.88;;;7.07;;
12177;SDS011;6152;48.728;9.256;2022-07-22T02:11:00;7.55;;;6.55;;
12177;SDS011;6152;48.728;9.256;2022-07-22T02:13:27;9.32;;;6.78;;
12177;SDS011;6152;48.728;9.256;2022-07-22T02:15:53;7.22;;;6.47;;
12177;SDS011;6152;48.728;9.256;2022-07-22T02:18:19;8.25;;;7.13;;
12177;SDS011;6152;48.728;9.256;2022-07-22T02:20:45;9.50;;;7.45;;
12177;SDS011;6152;48.728;9.256;2022-07-22T02:23:12;7.93;;;7.03;;
12177;SDS011;6152;48.728;9.256;2022-07-22T02:25:39;8.85;;;6.93;;
12177;SDS011;6152;48.728;9.256;2022-07-22T02:28:06;8.55;;;7.13;;
12177;SDS011;6152;48.728;9.256;2022-07-22T02:30:32;9.10;;;7.75;;
12177;SDS011;6152;48.728;9.256;2022-07-22T02:32:58;7.32;;;6.63;;
12177;SDS011;6152;48.728;9.256;2022-07-22T02:35:25;8.73;;;7.07;;
12177;SDS011;6152;48.728;9.256;2022-07-22T02:37:51;9.38;;;6.55;;
12177;SDS011;6152;48.728;9.256;2022-07-22T02:40:17;8.90;;;7.15;;
12177;SDS011;6152;48.728;9.256;2022-07-22T02:42:43;8.93;;;6.95;;
12177;SDS011;6152;48.728;9.256;2022-07-22T02:45:10;8.10;;;6.80;;
12177;SDS011;6152;48.728;9.256;2022-07-22T02:47:44;7.28;;;6.57;;
12177;SDS011;6152;48.728;9.256;2022-07-22T02:50:11;9.10;;;7.25;;
12177;SDS011;6152;48.728;9.256;2022-07-22T02:52:38;8.60;;;7.35;;
12177;SDS011;6152;48.728;9.256;2022-07-22T02:55:04;10.05;;;7.30;;
12177;SDS011;6152;48.728;9.256;2022-07-22T02:57:31;9.02;;;7.10;;
12177;SDS011;6152;48.728;9.256;2022-07-22T02:59:57;8.23;;;7.43;;
12177;SDS011;6152;48.728;9.256;2022-07-22T03:02:23;8.48;;;7.57;;
12177;SDS011;6152;48.728;9.256;2022-07-22T03:04:49;7.93;;;7.13;;
12177;SDS011;6152;48.728;9.256;2022-07-22T03:07:15;7.72;;;7.03;;
12177;SDS011;6152;48.728;9.256;2022-07-22T03:09:41;9.25;;;7.40;;
12177;SDS011;6152;48.728;9.256;2022-07-22T03:12:08;8.27;;;7.47;;
12177;SDS011;6152;48.728;9.256;2022-07-22T03:14:34;9.40;;;7.57;;
12177;SDS011;6152;48.728;9.256;2022-07-22T03:17:00;9.07;;;7.65;;
12177;SDS011;6152;48.728;9.256;2022-07-22T03:19:26;8.63;;;7.70;;
12177;SDS011;6152;48.728;9.256;2022-07-22T03:21:52;9.00;;;6.97;;
12177;SDS011;6152;48.728;9.256;2022-07-22T03:24:19;10.70;;;7.95;;
12177;SDS011;6152;48.728;9.256;2022-07-22T03:26:45;10.52;;;8.02;;
12177;SDS011;6152;48.728;9.256;2022-07-22T03:29:11;8.98;;;7.68;;
12177;SDS011;6152;48.728;9.256;2022-07-22T03:31:37;9.38;;;8.27;;
12177;SDS011;6152;48.728;9.256;2022-07-22T03:34:03;12.02;;;7.82;;
12177;SDS011;6152;48.728;9.256;2022-07-22T03:36:29;8.93;;;8.00;;
12177;SDS011;6152;48.728;9.256;2022-07-22T03:38:55;10.02;;;8.45;;
12177;SDS011;6152;48.728;9.256;2022-07-22T03:41:22;9.88;;;7.93;;
12177;SDS011;6152;48.728;9.256;2022-07-22T03:43:48;8.75;;;7.85;;
12177;SDS011;6152;48.728;9.256;2022-07-22T03:46:14;9.38;;;7.85;;
12177;SDS011;6152;48.728;9.256;2022-07-22T03:48:40;9.90;;;8.02;;
12177;SDS011;6152;48.728;9.256;2022-07-22T03:51:06;10.40;;;8.18;;
12177;SDS011;6152;48.728;9.256;2022-07-22T03:53:32;9.15;;;7.95;;
12177;SDS011;6152;48.728;9.256;2022-07-22T03:55:59;8.50;;;7.70;;
12177;SDS011;6152;48.728;9.256;2022-07-22T03:58:26;9.00;;;7.45;;
12177;SDS011;6152;48.728;9.256;2022-07-22T04:00:53;10.05;;;8.52;;
12177;SDS011;6152;48.728;9.256;2022-07-22T04:03:19;10.40;;;7.88;;
12177;SDS011;6152;48.728;9.256;2022-07-22T04:05:46;12.45;;;8.73;;
12177;SDS011;6152;48.728;9.256;2022-07-22T04:08:12;10.65;;;7.65;;
12177;SDS011;6152;48.728;9.256;2022-07-22T04:10:39;9.25;;;8.23;;
12177;SDS011;6152;48.728;9.256;2022-07-22T04:13:05;9.73;;;8.73;;
12177;SDS011;6152;48.728;9.256;2022-07-22T04:15:31;10.35;;;8.90;;
12177;SDS011;6152;48.728;9.256;2022-07-22T04:17:57;11.80;;;9.18;;
12177;SDS011;6152;48.728;9.256;2022-07-22T04:20:23;11.50;;;8.52;;
12177;SDS011;6152;48.728;9.256;2022-07-22T04:22:49;12.35;;;8.90;;
12177;SDS011;6152;48.728;9.256;2022-07-22T04:25:16;9.32;;;8.18;;
12177;SDS011;6152;48.728;9.256;2022-07-22T04:27:42;11.30;;;8.48;;
12177;SDS011;6152;48.728;9.256;2022-07-22T04:30:08;12.05;;;9.23;;
12177;SDS011;6152;48.728;9.256;2022-07-22T04:32:34;11.43;;;9.00;;
12177;SDS011;6152;48.728;9.256;2022-07-22T04:35:01;11.27;;;8.65;;
12177;SDS011;6152;48.728;9.256;2022-07-22T04:37:27;12.40;;;8.73;;
12177;SDS011;6152;48.728;9.256;2022-07-22T04:39:53;9.93;;;8.30;;
12177;SDS011;6152;48.728;9.256;2022-07-22T04:42:19;10.80;;;9.20;;
12177;SDS011;6152;48.728;9.256;2022-07-22T04:44:45;9.60;;;8.48;;
12177;SDS011;6152;48.728;9.256;2022-07-22T04:47:12;10.25;;;8.70;;
12177;SDS011;6152;48.728;9.256;2022-07-22T04:49:38;10.90;;;9.32;;
12177;SDS011;6152;48.728;9.256;2022-07-22T04:52:04;11.80;;;8.45;;
12177;SDS011;6152;48.728;9.256;2022-07-22T04:54:31;9.98;;;8.10;;
12177;SDS011;6152;48.728;9.256;2022-07-22T04:56:57;10.07;;;8.85;;
12177;SDS011;6152;48.728;9.256;2022-07-22T04:59:23;9.77;;;8.77;;
12177;SDS011;6152;48.728;9.256;2022-07-22T05:01:49;10.52;;;8.65;;
12177;SDS011;6152;48.728;9.256;2022-07-22T05:04:15;10.20;;;9.20;;
12177;SDS011;6152;48.728;9.256;2022-07-22T05:06:42;12.82;;;9.60;;
12177;SDS011;6152;48.728;9.256;2022-07-22T05:09:08;12.60;;;9.55;;
12177;SDS011;6152;48.728;9.256;2022-07-22T05:11:34;13.38;;;9.30;;
12177;SDS011;6152;48.728;9.256;2022-07-22T05:14:00;12.40;;;9.63;;
12177;SDS011;6152;48.728;9.256;2022-07-22T05:16:26;12.60;;;10.13;;
12177;SDS011;6152;48.728;9.256;2022-07-22T05:18:52;12.07;;;10.52;;
12177;SDS011;6152;48.728;9.256;2022-07-22T05:21:18;11.98;;;9.65;;
12177;SDS011;6152;48.728;9.256;2022-07-22T05:23:45;14.10;;;9.40;;
12177;SDS011;6152;48.728;9.256;2022-07-22T05:26:14;10.52;;;9.25;;
12177;SDS011;6152;48.728;9.256;2022-07-22T05:28:43;13.77;;;9.95;;
12177;SDS011;6152;48.728;9.256;2022-07-22T05:31:09;12.35;;;9.23;;
12177;SDS011;6152;48.728;9.256;2022-07-22T05:33:35;11.90;;;9.57;;
12177;SDS011;6152;48.728;9.256;2022-07-22T05:36:02;11.35;;;9.57;;
12177;SDS011;6152;48.728;9.256;2022-07-22T05:38:31;12.52;;;10.23;;
12177;SDS011;6152;48.728;9.256;2022-07-22T05:40:58;11.73;;;9.80;;
12177;SDS011;6152;48.728;9.256;2022-07-22T05:43:24;12.73;;;9.85;;
12177;SDS011;6152;48.728;9.256;2022-07-22T05:45:50;14.70;;;10.35;;
12177;SDS011;6152;48.728;9.256;2022-07-22T05:48:16;12.80;;;9.75;;
12177;SDS011;6152;48.728;9.256;2022-07-22T05:50:42;12.93;;;9.95;;
12177;SDS011;6152;48.728;9.256;2022-07-22T05:53:09;12.80;;;9.30;;
12177;SDS011;6152;48.728;9.256;2022-07-22T05:55:35;12.32;;;8.98;;
12177;SDS011;6152;48.728;9.256;2022-07-22T05:58:01;10.05;;;8.48;;
12177;SDS011;6152;48.728;9.256;2022-07-22T06:00:27;11.30;;;8.98;;
12177;SDS011;6152;48.728;9.256;2022-07-22T06:02:53;12.35;;;9.57;;
12177;SDS011;6152;48.728;9.256;2022-07-22T06:05:19;12.63;;;9.90;;
12177;SDS011;6152;48.728;9.256;2022-07-22T06:07:46;13.32;;;9.98;;
12177;SDS011;6152;48.728;9.256;2022-07-22T06:10:12;12.30;;;9.65;;
12177;SDS011;6152;48.728;9.256;2022-07-22T06:12:38;13.57;;;9.52;;
12177;SDS011;6152;48.728;9.256;2022-07-22T06:15:04;12.00;;;9.45;;
12177;SDS011;6152;48.728;9.256;2022-07-22T06:17:31;14.00;;;10.25;;
12177;SDS011;6152;48.728;9.256;2022-07-22T06:19:57;11.30;;;9.68;;
12177;SDS011;6152;48.728;9.256;2022-07-22T06:22:23;12.05;;;10.18;;
12177;SDS011;6152;48.728;9.256;2022-07-22T06:24:49;12.73;;;9.55;;
12177;SDS011;6152;48.728;9.256;2022-07-22T06:27:15;12.80;;;9.68;;
12177;SDS011;6152;48.728;9.256;2022-07-22T06:29:42;12.52;;;9.63;;
12177;SDS011;6152;48.728;9.256;2022-07-22T06:32:13;12.65;;;9.77;;
12177;SDS011;6152;48.728;9.256;2022-07-22T06:34:39;11.55;;;9.70;;
12177;SDS011;6152;48.728;9.256;2022-07-22T06:37:05;12.57;;;9.55;;
12177;SDS011;6152;48.728;9.256;2022-07-22T06:39:31;12.45;;;10.52;;
12177;SDS011;6152;48.728;9.256;2022-07-22T06:41:58;14.63;;;10.88;;
12177;SDS011;6152;48.728;9.256;2022-07-22T06:44:24;14.23;;;10.82;;
12177;SDS011;6152;48.728;9.256;2022-07-22T06:46:50;18.88;;;12.35;;
12177;SDS011;6152;48.728;9.256;2022-07-22T06:49:16;13.63;;;11.00;;
12177;SDS011;6152;48.728;9.256;2022-07-22T06:51:42;13.95;;;11.38;;
12177;SDS011;6152;48.728;9.256;2022-07-22T06:54:09;14.20;;;10.90;;
12177;SDS011;6152;48.728;9.256;2022-07-22T06:56:35;12.23;;;10.82;;
12177;SDS011;6152;48.728;9.256;2022-07-22T06:59:01;11.73;;;9.88;;
12177;SDS011;6152;48.728;9.256;2022-07-22T07:01:27;12.65;;;9.80;;
12177;SDS011;6152;48.728;9.256;2022-07-22T07:03:53;12.05;;;10.02;;
12177;SDS011;6152;48.728;9.256;2022-07-22T07:06:19;14.55;;;10.70;;
12177;SDS011;6152;48.728;9.256;2022-07-22T07:08:46;13.68;;;10.85;;
12177;SDS011;6152;48.728;9.256;2022-07-22T07:11:12;15.85;;;10.55;;
12177;SDS011;6152;48.728;9.256;2022-07-22T07:13:38;12.90;;;9.55;;
12177;SDS011;6152;48.728;9.256;2022-07-22T07:16:04;13.02;;;10.48;;
12177;SDS011;6152;48.728;9.256;2022-07-22T07:18:30;11.25;;;9.48;;
12177;SDS011;6152;48.728;9.256;2022-07-22T07:20:56;12.50;;;10.40;;
12177;SDS011;6152;48.728;9.256;2022-07-22T07:23:22;11.75;;;10.00;;
12177;SDS011;6152;48.728;9.256;2022-07-22T07:25:49;11.50;;;9.38;;
12177;SDS011;6152;48.728;9.256;2022-07-22T07:28:15;11.30;;;9.13;;
12177;SDS011;6152;48.728;9.256;2022-07-22T07:30:42;12.82;;;9.40;;
12177;SDS011;6152;48.728;9.256;2022-07-22T07:33:08;11.95;;;8.70;;
12177;SDS011;6152;48.728;9.256;2022-07-22T07:35:34;14.70;;;9.43;;
12177;SDS011;6152;48.728;9.256;2022-07-22T07:38:00;13.30;;;9.10;;
12177;SDS011;6152;48.728;9.256;2022-07-22T07:40:26;11.05;;;9.93;;
12177;SDS011;6152;48.728;9.256;2022-07-22T07:42:53;11.93;;;9.98;;
12177;SDS011;6152;48.728;9.256;2022-07-22T07:45:19;10.80;;;9.70;;
12177;SDS011;6152;48.728;9.256;2022-07-22T07:47:45;10.70;;;8.95;;
12177;SDS011;6152;48.728;9.256;2022-07-22T07:50:12;9.70;;;8.65;;
12177;SDS011;6152;48.728;9.256;2022-07-22T07:52:39;8.45;;;7.55;;
12177;SDS011;6152;48.728;9.256;2022-07-22T07:55:10;8.68;;;7.78;;
12177;SDS011;6152;48.728;9.256;2022-07-22T07:57:37;9.45;;;8.15;;
12177;SDS011;6152;48.728;9.256;2022-07-22T08:00:05;9.13;;;8.20;;
12177;SDS011;6152;48.728;9.256;2022-07-22T08:02:33;11.65;;;8.93;;
12177;SDS011;6152;48.728;9.256;2022-07-22T08:04:59;9.82;;;8.20;;
12177;SDS011;6152;48.728;9.256;2022-07-22T08:07:26;9.00;;;8.00;;
12177;SDS011;6152;48.728;9.256;2022-07-22T08:09:53;10.32;;;9.18;;
12177;SDS011;6152;48.728;9.256;2022-07-22T08:12:19;9.13;;;8.18;;
12177;SDS011;6152;48.728;9.256;2022-07-22T08:14:45;9.75;;;8.25;;
12177;SDS011;6152;48.728;9.256;2022-07-22T08:17:11;7.63;;;6.82;;
12177;SDS011;6152;48.728;9.256;2022-07-22T08:19:38;8.55;;;7.75;;
12177;SDS011;6152;48.728;9.256;2022-07-22T08:22:04;8.43;;;7.63;;
12177;SDS011;6152;48.728;9.256;2022-07-22T08:24:30;7.63;;;6.85;;
12177;SDS011;6152;48.728;9.256;2022-07-22T08:26:56;8.20;;;7.40;;
12177;SDS011;6152;48.728;9.256;2022-07-22T08:29:22;7.70;;;7.00;;
12177;SDS011;6152;48.728;9.256;2022-07-22T08:31:48;8.00;;;7.30;;
12177;SDS011;6152;48.728;9.256;2022-07-22T08:34:15;7.35;;;6.65;;
12177;SDS011;6152;48.728;9.256;2022-07-22T08:36:41;7.78;;;7.00;;
12177;SDS011;6152;48.728;9.256;2022-07-22T08:39:07;7.00;;;6.32;;
12177;SDS011;6152;48.728;9.256;2022-07-22T08:41:34;8.65;;;6.68;;
12177;SDS011;6152;48.728;9.256;2022-07-22T08:44:02;7.30;;;5.55;;
12177;SDS011;6152;48.728;9.256;2022-07-22T08:46:29;7.60;;;6.78;;
12177;SDS011;6152;48.728;9.256;2022-07-22T08:48:55;7.10;;;6.50;;
12177;SDS011;6152;48.728;9.256;2022-07-22T08:51:25;7.10;;;6.47;;
12177;SDS011;6152;48.728;9.256;2022-07-22T08:53:52;8.40;;;6.13;;
12177;SDS011;6152;48.728;9.256;2022-07-22T08:56:19;6.72;;;6.18;;
12177;SDS011;6152;48.728;9.256;2022-07-22T08:58:45;6.28;;;5.80;;
12177;SDS011;6152;48.728;9.256;2022-07-22T09:01:15;7.40;;;6.22;;
12177;SDS011;6152;48.728;9.256;2022-07-22T09:03:47;7.07;;;6.50;;
12177;SDS011;6152;48.728;9.256;2022-07-22T09:06:16;6.72;;;6.22;;
12177;SDS011;6152;48.728;9.256;2022-07-22T09:08:56;7.30;;;5.95;;
12177;SDS011;6152;48.728;9.256;2022-07-22T09:11:23;5.90;;;5.35;;
12177;SDS011;6152;48.728;9.256;2022-07-22T09:13:52;7.30;;;5.82;;
12177;SDS011;6152;48.728;9.256;2022-07-22T09:19:13;6.20;;;5.70;;
12177;SDS011;6152;48.728;9.256;2022-07-22T09:21:55;6.45;;;5.95;;
12177;SDS011;6152;48.728;9.256;2022-07-22T09:24:25;5.78;;;5.40;;
12177;SDS011;6152;48.728;9.256;2022-07-22T09:26:56;6.28;;;5.78;;
12177;SDS011;6152;48.728;9.256;2022-07-22T09:29:22;6.03;;;5.55;;
12177;SDS011;6152;48.728;9.256;2022-07-22T09:31:50;6.32;;;5.85;;
12177;SDS011;6152;48.728;9.256;2022-07-22T09:34:27;6.72;;;6.22;;
12177;SDS011;6152;48.728;9.256;2022-07-22T09:36:56;5.88;;;5.47;;
12177;SDS011;6152;48.728;9.256;2022-07-22T09:39:24;5.85;;;5.45;;
12177;SDS011;6152;48.728;9.256;2022-07-22T09:41:59;6.20;;;5.70;;
12177;SDS011;6152;48.728;9.256;2022-07-22T09:44:27;6.95;;;5.40;;
12177;SDS011;6152;48.728;9.256;2022-07-22T09:46:53;6.20;;;5.75;;
12177;SDS011;6152;48.728;9.256;2022-07-22T09:49:33;6.32;;;5.82;;
12177;SDS011;6152;48.728;9.256;2022-07-22T09:52:01;6.65;;;6.15;;
12177;SDS011;6152;48.728;9.256;2022-07-22T09:54:30;6.03;;;5.13;;
12177;SDS011;6152;48.728;9.256;2022-07-22T09:56:57;5.53;;;5.22;;
12177;SDS011;6152;48.728;9.256;2022-07-22T09:59:24;6.30;;;5.47;;
12177;SDS011;6152;48.728;9.256;2022-07-22T10:01:50;5.90;;;5.50;;
12177;SDS011;6152;48.728;9.256;2022-07-22T10:04:19;5.97;;;5.53;;
12177;SDS011;6152;48.728;9.256;2022-07-22T10:06:48;6.00;;;5.60;;
12177;SDS011;6152;48.728;9.256;2022-07-22T10:09:17;6.00;;;5.60;;
12177;SDS011;6152;48.728;9.256;2022-07-22T10:11:45;6.90;;;6.32;;
12177;SDS011;6152;48.728;9.256;2022-07-22T10:14:14;5.50;;;5.20;;
12177;SDS011;6152;48.728;9.256;2022-07-22T10:16:41;6.45;;;5.95;;
12177;SDS011;6152;48.728;9.256;2022-07-22T10:19:08;7.05;;;6.45;;
12177;SDS011;6152;48.728;9.256;2022-07-22T10:21:35;6.22;;;5.82;;
12177;SDS011;6152;48.728;9.256;2022-07-22T10:24:12;6.22;;;5.75;;
12177;SDS011;6152;48.728;9.256;2022-07-22T10:26:52;6.35;;;5.82;;
12177;SDS011;6152;48.728;9.256;2022-07-22T10:29:24;6.15;;;5.75;;
12177;SDS011;6152;48.728;9.256;2022-07-22T10:45:44;7.68;;;6.03;;
12177;SDS011;6152;48.728;9.256;2022-07-22T10:48:16;6.35;;;5.95;;
12177;SDS011;6152;48.728;9.256;2022-07-22T10:50:48;6.10;;;5.65;;
12177;SDS011;6152;48.728;9.256;2022-07-22T10:53:17;6.40;;;5.68;;
12177;SDS011;6152;48.728;9.256;2022-07-22T10:58:41;5.72;;;5.35;;
12177;SDS011;6152;48.728;9.256;2022-07-22T11:01:10;6.30;;;5.80;;
12177;SDS011;6152;48.728;9.256;2022-07-22T11:03:40;6.22;;;5.68;;
12177;SDS011;6152;48.728;9.256;2022-07-22T11:06:22;6.38;;;5.95;;
12177;SDS011;6152;48.728;9.256;2022-07-22T11:08:50;5.93;;;5.63;;
12177;SDS011;6152;48.728;9.256;2022-07-22T11:14:10;6.22;;;5.72;;
12177;SDS011;6152;48.728;9.256;2022-07-22T11:16:39;6.43;;;6.03;;
12177;SDS011;6152;48.728;9.256;2022-07-22T11:19:06;6.47;;;5.82;;
12177;SDS011;6152;48.728;9.256;2022-07-22T11:21:33;7.28;;;6.63;;
12177;SDS011;6152;48.728;9.256;2022-07-22T11:24:00;6.60;;;6.00;;
12177;SDS011;6152;48.728;9.256;2022-07-22T11:26:34;6.00;;;5.60;;
12177;SDS011;6152;48.728;9.256;2022-07-22T11:29:24;6.05;;;5.57;;
12177;SDS011;6152;48.728;9.256;2022-07-22T11:31:55;5.95;;;5.65;;
12177;SDS011;6152;48.728;9.256;2022-07-22T11:34:22;5.65;;;5.35;;
12177;SDS011;6152;48.728;9.256;2022-07-22T11:36:50;6.13;;;5.63;;
12177;SDS011;6152;48.728;9.256;2022-07-22T11:39:20;5.60;;;5.30;;
12177;SDS011;6152;48.728;9.256;2022-07-22T11:41:48;5.80;;;5.43;;
12177;SDS011;6152;48.728;9.256;2022-07-22T11:44:19;5.43;;;5.13;;
12177;SDS011;6152;48.728;9.256;2022-07-22T11:46:46;5.80;;;5.40;;
12177;SDS011;6152;48.728;9.256;2022-07-22T11:49:13;5.50;;;5.10;;
12177;SDS011;6152;48.728;9.256;2022-07-22T11:51:41;5.05;;;4.75;;
12177;SDS011;6152;48.728;9.256;2022-07-22T11:54:07;5.50;;;5.00;;
12177;SDS011;6152;48.728;9.256;2022-07-22T11:56:34;5.30;;;5.00;;
12177;SDS011;6152;48.728;9.256;2022-07-22T11:59:01;5.53;;;5.13;;
12177;SDS011;6152;48.728;9.256;2022-07-22T12:01:30;5.10;;;4.80;;
12177;SDS011;6152;48.728;9.256;2022-07-22T12:06:29;6.10;;;5.55;;
12177;SDS011;6152;48.728;9.256;2022-07-22T12:09:06;5.75;;;5.25;;
12177;SDS011;6152;48.728;9.256;2022-07-22T12:11:34;5.80;;;5.38;;
12177;SDS011;6152;48.728;9.256;2022-07-22T12:14:09;5.05;;;4.60;;
12177;SDS011;6152;48.728;9.256;2022-07-22T12:16:38;6.15;;;5.55;;
12177;SDS011;6152;48.728;9.256;2022-07-22T12:19:07;5.18;;;4.65;;
12177;SDS011;6152;48.728;9.256;2022-07-22T12:21:48;5.22;;;4.82;;
12177;SDS011;6152;48.728;9.256;2022-07-22T12:24:16;5.68;;;5.13;;
12177;SDS011;6152;48.728;9.256;2022-07-22T12:26:50;5.68;;;5.18;;
12177;SDS011;6152;48.728;9.256;2022-07-22T12:31:51;5.30;;;4.90;;
12177;SDS011;6152;48.728;9.256;2022-07-22T12:34:30;6.10;;;5.50;;
12177;SDS011;6152;48.728;9.256;2022-07-22T12:37:01;5.38;;;4.97;;
12177;SDS011;6152;48.728;9.256;2022-07-22T12:39:39;5.65;;;5.22;;
12177;SDS011;6152;48.728;9.256;2022-07-22T12:42:23;6.28;;;5.68;;
12177;SDS011;6152;48.728;9.256;2022-07-22T12:45:04;6.03;;;5.50;;
12177;SDS011;6152;48.728;9.256;2022-07-22T12:52:52;5.38;;;4.93;;
12177;SDS011;6152;48.728;9.256;2022-07-22T12:55:22;5.68;;;5.18;;
12177;SDS011;6152;48.728;9.256;2022-07-22T12:57:49;5.30;;;4.80;;
12177;SDS011;6152;48.728;9.256;2022-07-22T13:00:16;6.15;;;5.55;;
12177;SDS011;6152;48.728;9.256;2022-07-22T13:02:44;5.28;;;4.88;;
12177;SDS011;6152;48.728;9.256;2022-07-22T13:05:10;5.57;;;5.07;;
12177;SDS011;6152;48.728;9.256;2022-07-22T13:07:36;5.63;;;5.22;;
12177;SDS011;6152;48.728;9.256;2022-07-22T13:10:03;5.63;;;5.15;;
12177;SDS011;6152;48.728;9.256;2022-07-22T13:12:29;6.20;;;5.68;;
12177;SDS011;6152;48.728;9.256;2022-07-22T13:14:55;6.03;;;5.43;;
12177;SDS011;6152;48.728;9.256;2022-07-22T13:17:22;6.40;;;5.10;;
12177;SDS011;6152;48.728;9.256;2022-07-22T13:19:48;5.60;;;5.20;;
12177;SDS011;6152;48.728;9.256;2022-07-22T13:22:14;5.95;;;5.45;;
12177;SDS011;6152;48.728;9.256;2022-07-22T13:24:40;5.45;;;4.78;;
12177;SDS011;6152;48.728;9.256;2022-07-22T13:27:06;6.70;;;4.82;;
12177;SDS011;6152;48.728;9.256;2022-07-22T13:29:33;5.53;;;4.97;;
12177;SDS011;6152;48.728;9.256;2022-07-22T13:31:59;4.93;;;4.53;;
12177;SDS011;6152;48.728;9.256;2022-07-22T13:34:25;6.63;;;4.78;;
12177;SDS011;6152;48.728;9.256;2022-07-22T13:36:51;5.10;;;4.72;;
12177;SDS011;6152;48.728;9.256;2022-07-22T13:39:17;4.85;;;4.45;;
12177;SDS011;6152;48.728;9.256;2022-07-22T13:41:43;5.38;;;4.47;;
12177;SDS011;6152;48.728;9.256;2022-07-22T13:44:09;5.82;;;5.32;;
12177;SDS011;6152;48.728;9.256;2022-07-22T13:46:36;4.93;;;4.53;;
12177;SDS011;6152;48.728;9.256;2022-07-22T13:49:02;5.18;;;4.40;;
12177;SDS011;6152;48.728;9.256;2022-07-22T13:51:29;4.80;;;4.32;;
12177;SDS011;6152;48.728;9.256;2022-07-22T13:53:56;5.65;;;4.10;;
12177;SDS011;6152;48.728;9.256;2022-07-22T13:56:22;5.25;;;4.75;;
12177;SDS011;6152;48.728;9.256;2022-07-22T13:58:49;5.78;;;4.68;;
12177;SDS011;6152;48.728;9.256;2022-07-22T14:01:15;4.95;;;4.55;;
12177;SDS011;6152;48.728;9.256;2022-07-22T14:03:41;4.75;;;4.35;;
12177;SDS011;6152;48.728;9.256;2022-07-22T14:06:07;7.15;;;4.95;;
12177;SDS011;6152;48.728;9.256;2022-07-22T14:08:34;5.65;;;4.70;;
12177;SDS011;6152;48.728;9.256;2022-07-22T14:11:01;5.32;;;4.90;;
12177;SDS011;6152;48.728;9.256;2022-07-22T14:13:28;8.00;;;4.72;;
12177;SDS011;6152;48.728;9.256;2022-07-22T14:15:54;4.93;;;4.57;;
12177;SDS011;6152;48.728;9.256;2022-07-22T14:18:20;7.95;;;4.82;;
12177;SDS011;6152;48.728;9.256;2022-07-22T14:20:47;5.13;;;4.60;;
12177;SDS011;6152;48.728;9.256;2022-07-22T14:23:13;4.65;;;4.20;;
12177;SDS011;6152;48.728;9.256;2022-07-22T14:25:41;5.07;;;4.53;;
12177;SDS011;6152;48.728;9.256;2022-07-22T14:28:08;5.40;;;5.00;;
12177;SDS011;6152;48.728;9.256;2022-07-22T14:30:34;4.97;;;4.57;;
12177;SDS011;6152;48.728;9.256;2022-07-22T14:33:01;7.70;;;4.60;;
12177;SDS011;6152;48.728;9.256;2022-07-22T14:35:28;4.68;;;4.38;;
12177;SDS011;6152;48.728;9.256;2022-07-22T14:37:54;5.15;;;4.65;;
12177;SDS011;6152;48.728;9.256;2022-07-22T14:40:20;4.90;;;4.47;;
12177;SDS011;6152;48.728;9.256;2022-07-22T14:42:46;4.47;;;4.07;;
12177;SDS011;6152;48.728;9.256;2022-07-22T14:45:13;4.50;;;4.10;;
12177;SDS011;6152;48.728;9.256;2022-07-22T14:47:39;4.10;;;3.80;;
12177;SDS011;6152;48.728;9.256;2022-07-22T14:50:07;5.65;;;4.60;;
12177;SDS011;6152;48.728;9.256;2022-07-22T14:52:33;4.70;;;4.40;;
12177;SDS011;6152;48.728;9.256;2022-07-22T14:55:00;4.50;;;4.10;;
12177;SDS011;6152;48.728;9.256;2022-07-22T14:57:26;4.60;;;4.30;;
12177;SDS011;6152;48.728;9.256;2022-07-22T14:59:53;5.03;;;4.63;;
12177;SDS011;6152;48.728;9.256;2022-07-22T15:02:19;5.25;;;4.75;;
12177;SDS011;6152;48.728;9.256;2022-07-22T15:04:45;4.90;;;4.28;;
12177;SDS011;6152;48.728;9.256;2022-07-22T15:07:11;5.75;;;5.05;;
12177;SDS011;6152;48.728;9.256;2022-07-22T15:09:37;4.55;;;4.15;;
12177;SDS011;6152;48.728;9.256;2022-07-22T15:12:03;5.40;;;4.90;;
12177;SDS011;6152;48.728;9.256;2022-07-22T15:14:30;5.07;;;4.55;;
12177;SDS011;6152;48.728;9.256;2022-07-22T15:16:56;5.28;;;4.80;;
12177;SDS011;6152;48.728;9.256;2022-07-22T15:19:22;5.60;;;4.47;;
12177;SDS011;6152;48.728;9.256;2022-07-22T15:21:48;5.07;;;4.57;;
12177;SDS011;6152;48.728;9.256;2022-07-22T15:24:14;4.65;;;4.35;;
12177;SDS011;6152;48.728;9.256;2022-07-22T15:26:40;4.88;;;4.47;;
12177;SDS011;6152;48.728;9.256;2022-07-22T15:29:06;4.75;;;4.35;;
12177;SDS011;6152;48.728;9.256;2022-07-22T15:31:32;4.95;;;4.55;;